ACA1108 CYVR-CYXE
Flight info
| Callsign | ACA1108 |
|---|---|
| Flight time | N/A |
| Altitude | 35000 |
| Route | DAPED DCT PETLI DCT DATNO DCT MAVOB MAVOB7 |
| Aircraft | A20N/M-SDE2E3FGHIRWXY/LB1 |
Departure
| Time | N/A |
|---|---|
| Airport | Vancouver International Airport (CYVR) |
Arrival
| Time | 2026-05-09 17:59 |
|---|---|
| Airport | Saskatoon John G. Diefenbaker International Airport (CYXE) |
| Time | Latitude | Longitude | Altitude | Speed | Heading |
|---|---|---|---|---|---|
| 2026-05-09 16:33 | 49.16145 | -122.18539 | 21725 ft | 418 kts | 94° |
| 2026-05-09 16:33 | 49.16037 | -122.14081 | 22314 ft | 422 kts | 94° |
| 2026-05-09 16:34 | 49.15927 | -122.09580 | 22907 ft | 426 kts | 94° |
| 2026-05-09 16:34 | 49.15814 | -122.05084 | 23468 ft | 430 kts | 94° |
| 2026-05-09 16:34 | 49.15698 | -122.00502 | 24001 ft | 434 kts | 94° |
| 2026-05-09 16:34 | 49.15578 | -121.95872 | 24502 ft | 437 kts | 94° |
| 2026-05-09 16:35 | 49.15456 | -121.91214 | 25006 ft | 440 kts | 94° |
| 2026-05-09 16:35 | 49.15331 | -121.86533 | 25489 ft | 443 kts | 94° |
| 2026-05-09 16:35 | 49.15203 | -121.81818 | 25968 ft | 446 kts | 94° |
| 2026-05-09 16:35 | 49.15073 | -121.77063 | 26424 ft | 449 kts | 94° |
| 2026-05-09 16:36 | 49.14940 | -121.72290 | 26906 ft | 451 kts | 94° |
| 2026-05-09 16:36 | 49.15703 | -121.57781 | 28204 ft | 463 kts | 83° |
| 2026-05-09 16:37 | 49.16147 | -121.52909 | 28643 ft | 465 kts | 83° |
| 2026-05-09 16:37 | 49.16590 | -121.48008 | 28994 ft | 468 kts | 83° |
| 2026-05-09 16:37 | 49.17031 | -121.43061 | 29389 ft | 470 kts | 84° |
| 2026-05-09 16:37 | 49.17470 | -121.38103 | 29771 ft | 473 kts | 84° |
| 2026-05-09 16:38 | 49.17910 | -121.33101 | 30126 ft | 475 kts | 84° |
| 2026-05-09 16:38 | 49.18349 | -121.28090 | 30490 ft | 478 kts | 84° |
| 2026-05-09 16:38 | 49.18790 | -121.23037 | 30772 ft | 481 kts | 84° |
| 2026-05-09 16:38 | 49.19231 | -121.17963 | 31115 ft | 482 kts | 84° |
| 2026-05-09 16:39 | 49.19671 | -121.12864 | 31426 ft | 485 kts | 84° |
| 2026-05-09 16:39 | 49.20111 | -121.07746 | 31813 ft | 485 kts | 84° |
| 2026-05-09 16:39 | 49.20549 | -121.02633 | 32214 ft | 485 kts | 84° |
| 2026-05-09 16:39 | 49.20983 | -120.97517 | 32562 ft | 485 kts | 84° |
| 2026-05-09 16:40 | 49.21409 | -120.92474 | 32937 ft | 485 kts | 84° |
| 2026-05-09 16:40 | 49.21846 | -120.87277 | 33319 ft | 485 kts | 84° |
| 2026-05-09 16:42 | 49.24787 | -120.51502 | 35224 ft | 485 kts | 84° |
| 2026-05-09 16:42 | 49.25198 | -120.46392 | 35226 ft | 484 kts | 84° |
| 2026-05-09 16:42 | 49.26014 | -120.36154 | 35222 ft | 484 kts | 85° |
| 2026-05-09 16:43 | 49.26821 | -120.25911 | 35217 ft | 485 kts | 85° |
| 2026-05-09 16:43 | 49.27619 | -120.15660 | 35210 ft | 485 kts | 85° |
| 2026-05-09 16:44 | 49.28409 | -120.05396 | 35192 ft | 485 kts | 85° |
| 2026-05-09 16:44 | 49.29189 | -119.95142 | 35181 ft | 485 kts | 85° |
| 2026-05-09 16:45 | 49.29961 | -119.84868 | 35168 ft | 485 kts | 85° |
| 2026-05-09 16:45 | 49.30725 | -119.74584 | 35185 ft | 487 kts | 85° |
| 2026-05-09 16:46 | 49.31520 | -119.64285 | 35190 ft | 487 kts | 81° |
| 2026-05-09 16:46 | 49.33386 | -119.54289 | 35191 ft | 489 kts | 70° |
| 2026-05-09 16:47 | 49.35681 | -119.44469 | 35187 ft | 489 kts | 70° |
| 2026-05-09 16:47 | 49.37964 | -119.34621 | 35180 ft | 490 kts | 70° |
| 2026-05-09 16:48 | 49.40239 | -119.24761 | 35180 ft | 491 kts | 70° |
| 2026-05-09 16:48 | 49.42510 | -119.14868 | 35171 ft | 491 kts | 70° |
| 2026-05-09 16:49 | 49.44775 | -119.04957 | 35169 ft | 492 kts | 70° |
| 2026-05-09 16:50 | 49.48158 | -118.90066 | 35174 ft | 492 kts | 70° |
| 2026-05-09 16:50 | 49.50406 | -118.80112 | 35177 ft | 493 kts | 70° |
| 2026-05-09 16:51 | 49.52648 | -118.70135 | 35175 ft | 493 kts | 70° |
| 2026-05-09 16:51 | 49.54867 | -118.60211 | 35173 ft | 493 kts | 70° |
| 2026-05-09 16:52 | 49.57093 | -118.50217 | 35183 ft | 493 kts | 70° |
| 2026-05-09 16:52 | 49.59310 | -118.40212 | 35176 ft | 493 kts | 70° |
| 2026-05-09 16:53 | 49.61517 | -118.30203 | 35178 ft | 493 kts | 70° |
| 2026-05-09 16:53 | 49.63715 | -118.20189 | 35176 ft | 492 kts | 70° |
| 2026-05-09 16:54 | 49.65530 | -118.11882 | 35168 ft | 492 kts | 70° |
| 2026-05-09 16:54 | 49.67707 | -118.01872 | 35165 ft | 492 kts | 70° |
| 2026-05-09 16:55 | 49.69891 | -117.91783 | 35166 ft | 491 kts | 70° |
| 2026-05-09 16:55 | 49.72035 | -117.81824 | 35168 ft | 492 kts | 70° |
| 2026-05-09 16:56 | 49.74190 | -117.71774 | 35162 ft | 493 kts | 70° |
| 2026-05-09 16:56 | 49.76336 | -117.61712 | 35170 ft | 493 kts | 70° |
| 2026-05-09 16:57 | 49.78474 | -117.51639 | 35171 ft | 493 kts | 70° |
| 2026-05-09 16:57 | 49.80603 | -117.41560 | 35174 ft | 493 kts | 70° |
| 2026-05-09 16:58 | 49.82728 | -117.31449 | 35185 ft | 493 kts | 70° |
| 2026-05-09 16:58 | 49.84845 | -117.21324 | 35182 ft | 494 kts | 70° |
| 2026-05-09 16:59 | 49.86953 | -117.11196 | 35187 ft | 494 kts | 70° |
| 2026-05-09 16:59 | 49.89041 | -117.01110 | 35191 ft | 495 kts | 70° |
| 2026-05-09 17:00 | 49.91133 | -116.90952 | 35183 ft | 494 kts | 70° |
| 2026-05-09 17:00 | 49.93217 | -116.80779 | 35189 ft | 496 kts | 70° |
| 2026-05-09 17:01 | 49.95300 | -116.70557 | 35201 ft | 496 kts | 70° |
| 2026-05-09 17:01 | 49.97372 | -116.60341 | 35209 ft | 496 kts | 70° |
| 2026-05-09 17:02 | 49.99431 | -116.50135 | 35199 ft | 495 kts | 70° |
| 2026-05-09 17:02 | 50.01480 | -116.39923 | 35203 ft | 495 kts | 70° |
| 2026-05-09 17:03 | 50.03518 | -116.29713 | 35191 ft | 494 kts | 70° |
| 2026-05-09 17:05 | 50.13148 | -115.89995 | 35166 ft | 489 kts | 63° |
| 2026-05-09 17:05 | 50.15787 | -115.80242 | 35166 ft | 488 kts | 63° |
| 2026-05-09 17:06 | 50.18416 | -115.70475 | 35162 ft | 488 kts | 63° |
| 2026-05-09 17:06 | 50.21028 | -115.60718 | 35165 ft | 487 kts | 63° |
| 2026-05-09 17:07 | 50.23623 | -115.50968 | 35157 ft | 485 kts | 63° |
| 2026-05-09 17:07 | 50.26199 | -115.41239 | 35157 ft | 485 kts | 63° |
| 2026-05-09 17:08 | 50.28766 | -115.31498 | 35159 ft | 485 kts | 63° |
| 2026-05-09 17:08 | 50.32602 | -115.16875 | 35166 ft | 484 kts | 63° |
| 2026-05-09 17:09 | 50.35145 | -115.07129 | 35165 ft | 484 kts | 63° |
| 2026-05-09 17:09 | 50.37663 | -114.97435 | 35159 ft | 483 kts | 63° |
| 2026-05-09 17:10 | 50.40186 | -114.87684 | 35156 ft | 483 kts | 63° |
| 2026-05-09 17:10 | 50.42699 | -114.77927 | 35161 ft | 483 kts | 63° |
| 2026-05-09 17:11 | 50.45205 | -114.68155 | 35144 ft | 482 kts | 63° |
| 2026-05-09 17:11 | 50.47699 | -114.58392 | 35152 ft | 482 kts | 63° |
| 2026-05-09 17:12 | 50.50183 | -114.48620 | 35138 ft | 482 kts | 63° |
| 2026-05-09 17:12 | 50.52658 | -114.38846 | 35142 ft | 481 kts | 63° |
| 2026-05-09 17:13 | 50.55123 | -114.29062 | 35123 ft | 481 kts | 63° |
| 2026-05-09 17:13 | 50.57576 | -114.19290 | 35128 ft | 480 kts | 63° |
| 2026-05-09 17:14 | 50.60022 | -114.09499 | 35125 ft | 480 kts | 63° |
| 2026-05-09 17:14 | 50.62457 | -113.99711 | 35128 ft | 480 kts | 63° |
| 2026-05-09 17:15 | 50.64882 | -113.89918 | 35123 ft | 480 kts | 63° |
| 2026-05-09 17:15 | 50.67283 | -113.80181 | 35125 ft | 480 kts | 63° |
| 2026-05-09 17:17 | 50.76866 | -113.40880 | 35114 ft | 480 kts | 63° |
| 2026-05-09 17:18 | 50.79245 | -113.31017 | 35111 ft | 480 kts | 63° |
| 2026-05-09 17:18 | 50.81613 | -113.21152 | 35110 ft | 480 kts | 63° |
| 2026-05-09 17:19 | 50.83973 | -113.11276 | 35110 ft | 480 kts | 63° |
| 2026-05-09 17:19 | 50.86328 | -113.01380 | 35107 ft | 480 kts | 63° |
| 2026-05-09 17:20 | 50.88675 | -112.91469 | 35103 ft | 481 kts | 63° |
| 2026-05-09 17:20 | 50.91012 | -112.81554 | 35107 ft | 481 kts | 63° |
| 2026-05-09 17:21 | 50.93347 | -112.71599 | 35112 ft | 481 kts | 63° |
| 2026-05-09 17:21 | 50.95670 | -112.61651 | 35110 ft | 481 kts | 64° |
| 2026-05-09 17:22 | 50.97982 | -112.51704 | 35110 ft | 481 kts | 64° |
| 2026-05-09 17:22 | 51.00288 | -112.41739 | 35111 ft | 480 kts | 64° |
| 2026-05-09 17:23 | 51.02579 | -112.31790 | 35115 ft | 480 kts | 64° |
| 2026-05-09 17:23 | 51.04862 | -112.21831 | 35117 ft | 480 kts | 64° |
| 2026-05-09 17:25 | 51.11655 | -111.91916 | 35130 ft | 479 kts | 64° |
| 2026-05-09 17:25 | 51.13903 | -111.81925 | 35135 ft | 479 kts | 64° |
| 2026-05-09 17:26 | 51.16139 | -111.71934 | 35140 ft | 479 kts | 64° |
| 2026-05-09 17:26 | 51.18369 | -111.61926 | 35141 ft | 479 kts | 64° |
| 2026-05-09 17:27 | 51.20586 | -111.51925 | 35143 ft | 479 kts | 64° |
| 2026-05-09 17:27 | 51.22795 | -111.41914 | 35135 ft | 478 kts | 65° |
| 2026-05-09 17:28 | 51.24993 | -111.31908 | 35147 ft | 478 kts | 65° |
| 2026-05-09 17:28 | 51.27183 | -111.21887 | 35150 ft | 478 kts | 65° |
| 2026-05-09 17:29 | 51.29368 | -111.11840 | 35148 ft | 478 kts | 65° |
| 2026-05-09 17:29 | 51.31536 | -111.01818 | 35150 ft | 478 kts | 65° |
| 2026-05-09 17:30 | 51.33698 | -110.91780 | 35151 ft | 477 kts | 65° |
| 2026-05-09 17:30 | 51.35847 | -110.81752 | 35146 ft | 477 kts | 65° |
| 2026-05-09 17:31 | 51.37973 | -110.71778 | 35143 ft | 476 kts | 65° |
| 2026-05-09 17:32 | 51.43275 | -110.46700 | 35143 ft | 476 kts | 66° |
| 2026-05-09 17:33 | 51.45382 | -110.36644 | 35144 ft | 476 kts | 66° |
| 2026-05-09 17:33 | 51.47479 | -110.26588 | 35146 ft | 475 kts | 66° |
| 2026-05-09 17:34 | 51.49552 | -110.16597 | 35140 ft | 475 kts | 66° |
| 2026-05-09 17:35 | 51.56703 | -109.81734 | 35134 ft | 474 kts | 66° |
| 2026-05-09 17:36 | 51.58743 | -109.71674 | 35144 ft | 473 kts | 66° |
| 2026-05-09 17:36 | 51.60777 | -109.61617 | 35145 ft | 469 kts | 68° |
| 2026-05-09 17:37 | 51.62779 | -109.51654 | 35141 ft | 468 kts | 68° |
| 2026-05-09 17:37 | 51.64773 | -109.41668 | 35141 ft | 468 kts | 68° |
| 2026-05-09 17:38 | 51.66758 | -109.31678 | 35140 ft | 468 kts | 68° |
| 2026-05-09 17:39 | 51.69717 | -109.16687 | 35079 ft | 467 kts | 68° |
| 2026-05-09 17:39 | 51.70697 | -109.11700 | 34673 ft | 467 kts | 68° |
| 2026-05-09 17:39 | 51.71677 | -109.06699 | 33894 ft | 470 kts | 68° |
| 2026-05-09 17:39 | 51.72670 | -109.01623 | 32861 ft | 476 kts | 68° |
| 2026-05-09 17:40 | 51.73667 | -108.96509 | 31754 ft | 483 kts | 68° |
| 2026-05-09 17:40 | 51.74678 | -108.91308 | 30709 ft | 488 kts | 68° |
| 2026-05-09 17:40 | 51.75351 | -108.87836 | 30017 ft | 491 kts | 68° |
| 2026-05-09 17:40 | 51.76359 | -108.82604 | 29472 ft | 482 kts | 68° |
| 2026-05-09 17:41 | 51.77640 | -108.75917 | 29115 ft | 463 kts | 68° |
| 2026-05-09 17:41 | 51.78282 | -108.72566 | 28713 ft | 459 kts | 68° |
| 2026-05-09 17:41 | 51.79526 | -108.66087 | 27871 ft | 453 kts | 68° |
| 2026-05-09 17:41 | 51.80451 | -108.61260 | 27259 ft | 448 kts | 68° |
| 2026-05-09 17:42 | 51.81367 | -108.56461 | 26663 ft | 444 kts | 68° |
| 2026-05-09 17:42 | 51.81978 | -108.53257 | 26279 ft | 441 kts | 68° |
| 2026-05-09 17:42 | 51.82876 | -108.48533 | 25687 ft | 437 kts | 68° |
| 2026-05-09 17:42 | 51.83752 | -108.43909 | 25125 ft | 433 kts | 68° |
| 2026-05-09 17:43 | 51.84641 | -108.39207 | 24558 ft | 429 kts | 68° |
| 2026-05-09 17:43 | 51.85498 | -108.34666 | 24025 ft | 426 kts | 68° |
| 2026-05-09 17:43 | 51.86355 | -108.30110 | 23439 ft | 422 kts | 68° |
| 2026-05-09 17:43 | 51.87203 | -108.25589 | 22833 ft | 418 kts | 68° |
| 2026-05-09 17:44 | 51.88040 | -108.21114 | 22241 ft | 414 kts | 68° |
| 2026-05-09 17:44 | 51.88869 | -108.16677 | 21657 ft | 410 kts | 68° |
| 2026-05-09 17:44 | 51.89686 | -108.12287 | 21088 ft | 406 kts | 68° |
| 2026-05-09 17:44 | 51.90497 | -108.07925 | 20530 ft | 402 kts | 68° |
| 2026-05-09 17:45 | 51.91295 | -108.03618 | 19982 ft | 398 kts | 67° |
| 2026-05-09 17:45 | 51.92086 | -107.99340 | 19453 ft | 394 kts | 67° |
| 2026-05-09 17:45 | 51.92870 | -107.95096 | 18909 ft | 391 kts | 67° |
| 2026-05-09 17:45 | 51.93644 | -107.90890 | 18387 ft | 388 kts | 67° |
| 2026-05-09 17:46 | 51.94410 | -107.86725 | 17796 ft | 384 kts | 67° |
| 2026-05-09 17:46 | 51.95167 | -107.82602 | 17225 ft | 380 kts | 67° |
| 2026-05-09 17:46 | 51.95918 | -107.78515 | 16660 ft | 377 kts | 68° |
| 2026-05-09 17:46 | 51.96661 | -107.74457 | 16109 ft | 373 kts | 68° |
| 2026-05-09 17:47 | 51.97397 | -107.70438 | 15571 ft | 370 kts | 68° |
| 2026-05-09 17:47 | 51.98125 | -107.66450 | 15046 ft | 367 kts | 68° |
| 2026-05-09 17:47 | 51.98846 | -107.62490 | 14517 ft | 365 kts | 68° |
| 2026-05-09 17:47 | 51.99559 | -107.58566 | 14016 ft | 361 kts | 68° |
| 2026-05-09 17:48 | 52.00265 | -107.54672 | 13451 ft | 358 kts | 68° |
| 2026-05-09 17:48 | 52.00961 | -107.50813 | 12932 ft | 355 kts | 70° |
| 2026-05-09 17:48 | 52.01449 | -107.46940 | 12412 ft | 356 kts | 78° |
| 2026-05-09 17:48 | 52.01584 | -107.42947 | 11902 ft | 357 kts | 87° |
| 2026-05-09 17:49 | 52.01437 | -107.38929 | 11415 ft | 354 kts | 89° |
| 2026-05-09 17:49 | 52.01314 | -107.34998 | 11128 ft | 340 kts | 88° |
| 2026-05-09 17:49 | 52.01206 | -107.31274 | 10939 ft | 321 kts | 88° |
| 2026-05-09 17:49 | 52.01104 | -107.27760 | 10765 ft | 302 kts | 88° |
| 2026-05-09 17:50 | 52.01008 | -107.24507 | 10604 ft | 285 kts | 88° |
| 2026-05-09 17:50 | 52.00826 | -107.18463 | 10234 ft | 255 kts | 87° |
| 2026-05-09 17:50 | 52.00744 | -107.15591 | 9938 ft | 254 kts | 87° |
| 2026-05-09 17:51 | 52.00661 | -107.12738 | 9640 ft | 253 kts | 87° |
| 2026-05-09 17:51 | 52.00577 | -107.09895 | 9375 ft | 251 kts | 88° |
| 2026-05-09 17:51 | 52.00490 | -107.07078 | 9062 ft | 249 kts | 88° |
| 2026-05-09 17:51 | 52.00404 | -107.04281 | 8738 ft | 248 kts | 88° |
| 2026-05-09 17:52 | 52.00315 | -107.01498 | 8479 ft | 247 kts | 88° |
| 2026-05-09 17:52 | 52.00226 | -106.98724 | 8187 ft | 245 kts | 88° |
| 2026-05-09 17:52 | 52.00137 | -106.95975 | 7901 ft | 244 kts | 88° |
| 2026-05-09 17:52 | 52.00048 | -106.93229 | 7619 ft | 243 kts | 88° |
| 2026-05-09 17:53 | 51.99960 | -106.90506 | 7356 ft | 241 kts | 88° |
| 2026-05-09 17:53 | 51.99870 | -106.87792 | 7129 ft | 240 kts | 88° |
| 2026-05-09 17:53 | 51.99786 | -106.85084 | 6908 ft | 240 kts | 88° |
| 2026-05-09 17:53 | 51.99695 | -106.82422 | 6689 ft | 239 kts | 89° |
| 2026-05-09 17:54 | 51.99600 | -106.79735 | 6470 ft | 238 kts | 89° |
| 2026-05-09 17:54 | 51.99509 | -106.77064 | 6275 ft | 236 kts | 89° |
| 2026-05-09 17:54 | 51.99525 | -106.74429 | 6023 ft | 230 kts | 76° |
| 2026-05-09 17:54 | 51.99944 | -106.71981 | 5901 ft | 221 kts | 64° |
| 2026-05-09 17:55 | 52.00460 | -106.69682 | 5816 ft | 212 kts | 65° |
| 2026-05-09 17:55 | 52.00941 | -106.67466 | 5734 ft | 204 kts | 65° |
| 2026-05-09 17:55 | 52.01387 | -106.65359 | 5717 ft | 193 kts | 66° |
| 2026-05-09 17:55 | 52.01988 | -106.63455 | 5426 ft | 187 kts | 41° |
| 2026-05-09 17:56 | 52.03092 | -106.62555 | 4995 ft | 178 kts | 1° |
| 2026-05-09 17:56 | 52.04288 | -106.62960 | 4661 ft | 177 kts | 338° |
| 2026-05-09 17:56 | 52.05441 | -106.63629 | 4356 ft | 176 kts | 339° |
| 2026-05-09 17:57 | 52.07744 | -106.64914 | 3783 ft | 174 kts | 340° |
| 2026-05-09 17:57 | 52.08878 | -106.65537 | 3403 ft | 170 kts | 340° |
| 2026-05-09 17:57 | 52.09998 | -106.66165 | 2849 ft | 170 kts | 340° |
| 2026-05-09 17:57 | 52.11109 | -106.66790 | 2413 ft | 163 kts | 340° |
| 2026-05-09 17:58 | 52.12124 | -106.67361 | 2277 ft | 143 kts | 341° |
| 2026-05-09 17:58 | 52.12993 | -106.67849 | 2084 ft | 126 kts | 341° |
| 2026-05-09 17:58 | 52.13764 | -106.68289 | 1967 ft | 111 kts | 342° |
| 2026-05-09 17:58 | 52.14542 | -106.68707 | 1939 ft | 124 kts | 342° |
| 2026-05-09 17:59 | 52.15373 | -106.69169 | 1861 ft | 127 kts | 341° |
| 2026-05-09 17:59 | 52.16206 | -106.69632 | 1709 ft | 125 kts | 342° |
| 2026-05-09 17:59 | 52.16960 | -106.70056 | 1650 ft | 85 kts | 342° |
| 2026-05-09 17:59 | 52.17237 | -106.70205 | 1652 ft | 0 kts | 339° |
| 2026-05-09 18:00 | 52.17267 | -106.70225 | 1652 ft | 12 kts | 337° |
| 2026-05-09 18:00 | 52.17326 | -106.70159 | 1650 ft | 12 kts | 93° |
| 2026-05-09 18:00 | 52.17314 | -106.70000 | 1649 ft | 16 kts | 100° |
| 2026-05-09 18:00 | 52.17293 | -106.69806 | 1649 ft | 19 kts | 101° |
| 2026-05-09 18:01 | 52.17267 | -106.69596 | 1649 ft | 19 kts | 102° |
| 2026-05-09 18:01 | 52.17236 | -106.69371 | 1649 ft | 22 kts | 102° |
| 2026-05-09 18:01 | 52.17215 | -106.69172 | 1649 ft | 12 kts | 99° |
| 2026-05-09 18:01 | 52.17164 | -106.69113 | 1649 ft | 4 kts | 213° |
| 2026-05-09 18:02 | 52.17149 | -106.69137 | 1649 ft | 5 kts | 226° |
| 2026-05-09 18:02 | 52.17103 | -106.69177 | 1649 ft | 10 kts | 184° |
| 2026-05-09 18:02 | 52.17071 | -106.69154 | 1649 ft | 6 kts | 153° |
| 2026-05-09 18:02 | 52.17054 | -106.69139 | 1649 ft | 0 kts | 150° |